createdAt,value
2022-11-30T00:01:12.487Z,5.10
2022-11-30T00:03:39.341Z,5.10
2022-11-30T00:06:08.215Z,5.10
2022-11-30T00:08:34.890Z,5.10
2022-11-30T00:11:08.121Z,5.10
2022-11-30T00:13:34.841Z,5.10
2022-11-30T00:16:01.804Z,5.10
2022-11-30T00:18:28.562Z,5.00
2022-11-30T00:20:55.260Z,5.00
2022-11-30T00:23:21.907Z,5.00
2022-11-30T00:25:48.552Z,5.00
2022-11-30T00:28:15.226Z,5.00
2022-11-30T00:30:41.898Z,5.00
2022-11-30T00:33:08.588Z,5.00
2022-11-30T00:35:35.273Z,4.90
2022-11-30T00:38:02.621Z,4.90
2022-11-30T00:40:29.236Z,4.90
2022-11-30T00:42:55.908Z,5.00
2022-11-30T00:45:22.554Z,5.00
2022-11-30T00:47:49.208Z,5.00
2022-11-30T00:50:16.016Z,5.00
2022-11-30T00:52:42.729Z,5.00
2022-11-30T00:55:09.803Z,5.00
2022-11-30T00:57:36.539Z,4.90
2022-11-30T01:00:03.838Z,4.90
2022-11-30T01:02:30.565Z,4.90
2022-11-30T01:04:57.281Z,4.90
2022-11-30T01:07:24.020Z,4.90
2022-11-30T01:09:50.753Z,4.90
2022-11-30T01:12:17.554Z,4.90
2022-11-30T01:14:44.587Z,4.90
2022-11-30T01:17:11.521Z,4.90
2022-11-30T01:19:38.219Z,4.90
2022-11-30T01:22:04.859Z,4.90
2022-11-30T01:24:31.503Z,4.90
2022-11-30T01:26:58.185Z,4.90
2022-11-30T01:29:24.854Z,4.90
2022-11-30T01:31:51.637Z,4.90
2022-11-30T01:34:18.382Z,4.90
2022-11-30T01:36:45.040Z,4.90
2022-11-30T01:39:11.991Z,4.90
2022-11-30T01:41:38.731Z,4.80
2022-11-30T01:44:05.341Z,4.80
2022-11-30T01:46:40.476Z,4.80
2022-11-30T01:49:10.246Z,4.80
2022-11-30T01:52:00.583Z,4.80
2022-11-30T01:54:33.622Z,4.80
2022-11-30T01:57:06.781Z,4.80
2022-11-30T01:59:33.785Z,4.80
2022-11-30T02:02:00.565Z,4.80
2022-11-30T02:04:34.335Z,4.80
2022-11-30T02:07:02.927Z,4.80
2022-11-30T02:09:31.580Z,4.80
2022-11-30T02:11:59.119Z,4.80
2022-11-30T02:14:34.524Z,4.80
2022-11-30T02:17:20.091Z,4.70
2022-11-30T02:20:08.054Z,4.70
2022-11-30T02:23:26.307Z,4.70
2022-11-30T02:26:22.054Z,4.70
2022-11-30T02:29:06.306Z,4.80
2022-11-30T02:32:05.890Z,4.80
2022-11-30T02:34:35.559Z,4.80
2022-11-30T02:37:03.418Z,4.80
2022-11-30T02:39:30.237Z,4.80
2022-11-30T02:41:56.953Z,4.80
2022-11-30T02:44:24.530Z,4.80
2022-11-30T02:46:54.122Z,4.80
2022-11-30T02:49:33.216Z,4.80
2022-11-30T02:52:02.420Z,4.80
2022-11-30T02:54:29.166Z,4.80
2022-11-30T02:56:55.844Z,4.80
2022-11-30T02:59:22.532Z,4.80
2022-11-30T03:01:49.240Z,4.80
2022-11-30T03:04:15.929Z,4.80
2022-11-30T03:06:42.628Z,4.80
2022-11-30T03:09:09.385Z,4.80
2022-11-30T03:11:36.139Z,4.80
2022-11-30T03:14:03.414Z,4.80
2022-11-30T03:16:30.064Z,4.80
2022-11-30T03:18:58.107Z,4.80
2022-11-30T03:21:25.081Z,4.80
2022-11-30T03:23:51.729Z,4.80
2022-11-30T03:26:18.501Z,4.80
2022-11-30T03:28:45.292Z,4.80
2022-11-30T03:31:13.411Z,4.80
2022-11-30T03:33:43.707Z,4.80
2022-11-30T03:36:11.915Z,4.80
2022-11-30T03:38:39.078Z,4.80
2022-11-30T03:41:08.640Z,4.80
2022-11-30T03:43:36.060Z,4.80
2022-11-30T03:46:03.534Z,4.80
2022-11-30T03:48:30.441Z,4.70
2022-11-30T03:50:57.446Z,4.70
2022-11-30T03:53:25.283Z,4.70
2022-11-30T03:55:54.136Z,4.80
2022-11-30T03:58:21.185Z,4.70
2022-11-30T04:00:47.987Z,4.70
2022-11-30T04:03:14.762Z,4.70
2022-11-30T04:05:41.493Z,4.60
2022-11-30T04:08:08.342Z,4.60
2022-11-30T04:10:35.006Z,4.60
2022-11-30T04:13:01.641Z,4.60
2022-11-30T04:15:28.314Z,4.70
2022-11-30T04:17:54.959Z,4.60
2022-11-30T04:20:23.837Z,4.70
2022-11-30T04:22:50.539Z,4.70
2022-11-30T04:25:17.350Z,4.70
2022-11-30T04:27:45.873Z,4.70
2022-11-30T04:30:13.174Z,4.70
2022-11-30T04:32:39.898Z,4.70
2022-11-30T04:35:06.883Z,4.70
2022-11-30T04:37:33.510Z,4.60
2022-11-30T04:40:00.286Z,4.60
2022-11-30T04:42:26.916Z,4.70
2022-11-30T04:44:53.577Z,4.70
2022-11-30T04:47:20.338Z,4.70
2022-11-30T04:49:47.209Z,4.60
2022-11-30T04:52:13.929Z,4.70
2022-11-30T04:54:40.632Z,4.60
2022-11-30T04:57:07.352Z,4.60
2022-11-30T04:59:34.036Z,4.60
2022-11-30T05:02:00.835Z,4.60
2022-11-30T05:04:29.189Z,4.60
2022-11-30T05:06:56.031Z,4.60
2022-11-30T05:09:22.826Z,4.60
2022-11-30T05:11:51.179Z,4.60
2022-11-30T05:14:17.843Z,4.50
2022-11-30T05:16:47.524Z,4.50
2022-11-30T05:19:14.348Z,4.50
2022-11-30T05:21:45.606Z,4.60
2022-11-30T05:24:12.713Z,4.50
2022-11-30T05:26:39.697Z,4.60
2022-11-30T05:29:06.833Z,4.50
2022-11-30T05:31:34.179Z,4.60
2022-11-30T05:34:00.883Z,4.60
2022-11-30T05:36:27.533Z,4.60
2022-11-30T05:38:54.332Z,4.60
2022-11-30T05:41:21.094Z,4.60
2022-11-30T05:43:47.753Z,4.60
2022-11-30T05:46:14.594Z,4.60
2022-11-30T05:48:41.303Z,4.60
2022-11-30T05:51:13.378Z,4.60
2022-11-30T05:53:40.149Z,4.60
2022-11-30T05:56:10.703Z,4.60
2022-11-30T05:58:39.905Z,4.50
2022-11-30T06:01:06.943Z,4.50
2022-11-30T06:03:34.829Z,4.60
2022-11-30T06:06:04.344Z,4.60
2022-11-30T06:08:31.805Z,4.60
2022-11-30T06:11:01.081Z,4.60
2022-11-30T06:13:29.076Z,4.60
2022-11-30T06:15:59.372Z,4.60
2022-11-30T06:18:26.292Z,4.60
2022-11-30T06:20:52.972Z,4.60
2022-11-30T06:23:19.661Z,4.60
2022-11-30T06:25:46.369Z,4.60
2022-11-30T06:28:13.125Z,4.50
2022-11-30T06:30:39.828Z,4.60
2022-11-30T06:33:06.551Z,4.60
2022-11-30T06:35:33.287Z,4.60
2022-11-30T06:38:00.132Z,4.50
2022-11-30T06:40:27.120Z,4.50
2022-11-30T06:42:54.752Z,4.60
2022-11-30T06:45:21.477Z,4.60
2022-11-30T06:47:48.102Z,4.60
2022-11-30T06:50:14.794Z,4.60
2022-11-30T06:52:41.522Z,4.60
2022-11-30T06:55:08.495Z,4.60
2022-11-30T06:57:35.163Z,4.70
2022-11-30T07:00:01.988Z,4.70
2022-11-30T07:02:28.617Z,4.70
2022-11-30T07:04:55.316Z,4.70
2022-11-30T07:07:22.156Z,4.60
2022-11-30T07:09:49.920Z,4.60
2022-11-30T07:12:17.019Z,4.70
2022-11-30T07:14:43.735Z,4.70
2022-11-30T07:17:10.429Z,4.60
2022-11-30T07:19:37.090Z,4.60
2022-11-30T07:22:04.273Z,4.60
2022-11-30T07:24:30.933Z,4.60
2022-11-30T07:27:00.325Z,4.60
2022-11-30T07:29:27.152Z,4.60
2022-11-30T07:31:54.699Z,4.70
2022-11-30T07:34:23.660Z,4.70
2022-11-30T07:36:50.431Z,4.70
2022-11-30T07:39:17.097Z,4.70
2022-11-30T07:41:43.797Z,4.70
2022-11-30T07:44:11.256Z,4.70
2022-11-30T07:46:38.740Z,4.70
2022-11-30T07:49:06.750Z,4.70
2022-11-30T07:51:33.859Z,4.70
2022-11-30T07:54:00.930Z,4.70
2022-11-30T07:56:31.165Z,4.70
2022-11-30T07:58:59.993Z,4.80
2022-11-30T08:01:29.993Z,4.80
2022-11-30T08:03:57.439Z,4.80
2022-11-30T08:06:27.340Z,4.80
2022-11-30T08:08:58.008Z,4.80
2022-11-30T08:11:27.608Z,4.80
2022-11-30T08:13:54.390Z,4.90
2022-11-30T08:16:26.775Z,4.90
2022-11-30T08:18:55.868Z,4.90
2022-11-30T08:21:23.494Z,4.90
2022-11-30T08:23:52.593Z,4.90
2022-11-30T08:26:20.651Z,5.00
2022-11-30T08:28:49.691Z,5.00
2022-11-30T08:31:20.115Z,5.00
2022-11-30T08:33:47.061Z,5.00
2022-11-30T08:36:15.047Z,5.10
2022-11-30T08:38:43.363Z,5.10
2022-11-30T08:41:12.076Z,5.10
2022-11-30T08:43:39.253Z,5.10
2022-11-30T08:46:27.401Z,5.10
2022-11-30T08:49:12.612Z,5.10
2022-11-30T08:54:28.289Z,5.10
2022-11-30T08:56:54.985Z,5.20
2022-11-30T08:59:21.650Z,5.20
2022-11-30T09:01:48.550Z,5.20
2022-11-30T09:04:15.259Z,5.20
2022-11-30T09:06:47.784Z,5.20
2022-11-30T09:09:14.493Z,5.30
2022-11-30T09:11:41.625Z,5.30
2022-11-30T09:14:09.796Z,5.30
2022-11-30T09:16:36.663Z,5.40
2022-11-30T09:19:03.731Z,5.40
2022-11-30T09:21:30.620Z,5.40
2022-11-30T09:23:57.686Z,5.40
2022-11-30T09:26:24.374Z,5.40
2022-11-30T09:28:52.957Z,5.40
2022-11-30T09:31:22.624Z,5.50
2022-11-30T09:33:49.372Z,5.50
2022-11-30T09:36:19.018Z,5.60
2022-11-30T09:38:46.310Z,5.60
2022-11-30T09:41:38.162Z,5.70
2022-11-30T09:44:21.658Z,5.70
2022-11-30T09:46:59.456Z,5.70
2022-11-30T09:49:39.366Z,5.70
2022-11-30T09:52:13.724Z,5.70
2022-11-30T09:54:42.935Z,5.70
2022-11-30T09:57:34.520Z,5.70
2022-11-30T10:00:09.977Z,5.70
2022-11-30T10:02:38.382Z,5.80
2022-11-30T10:05:16.425Z,5.80
2022-11-30T10:08:11.350Z,5.90
2022-11-30T10:10:48.032Z,5.80
2022-11-30T10:13:58.192Z,5.80
2022-11-30T10:16:45.123Z,5.90
2022-11-30T10:19:56.953Z,5.90
2022-11-30T10:22:59.020Z,6.00
2022-11-30T10:25:39.817Z,6.00
2022-11-30T10:28:24.273Z,6.10
2022-11-30T10:30:53.146Z,6.10
2022-11-30T10:33:27.347Z,6.10
2022-11-30T10:35:58.184Z,6.20
2022-11-30T10:38:30.508Z,6.20
2022-11-30T10:41:24.661Z,6.20
2022-11-30T10:43:51.315Z,6.30
2022-11-30T10:46:32.471Z,6.30
2022-11-30T10:49:06.866Z,6.30
2022-11-30T10:51:37.450Z,6.30
2022-11-30T10:54:16.118Z,6.30
2022-11-30T10:56:43.825Z,6.30
2022-11-30T10:59:22.490Z,6.40
2022-11-30T11:01:49.542Z,6.40
2022-11-30T11:04:21.172Z,6.50
2022-11-30T11:06:49.928Z,6.50
2022-11-30T11:09:23.422Z,6.50
2022-11-30T11:11:54.806Z,6.60
2022-11-30T11:14:24.390Z,6.60
2022-11-30T11:17:03.030Z,6.60
2022-11-30T11:19:41.378Z,6.60
2022-11-30T11:22:21.297Z,6.60
2022-11-30T11:24:50.094Z,6.60
2022-11-30T11:27:21.412Z,6.60
2022-11-30T11:29:58.149Z,6.60
2022-11-30T11:32:25.087Z,6.60
2022-11-30T11:34:52.271Z,6.60
2022-11-30T11:37:32.682Z,6.60
2022-11-30T11:40:14.125Z,6.70
2022-11-30T11:42:53.198Z,6.70
2022-11-30T11:45:25.796Z,6.70
2022-11-30T11:48:06.936Z,6.70
2022-11-30T11:51:06.208Z,6.70
2022-11-30T11:53:39.401Z,6.70
2022-11-30T11:56:16.717Z,6.70
2022-11-30T11:59:04.548Z,6.70
2022-11-30T12:01:47.763Z,6.60
2022-11-30T12:04:29.314Z,6.70
2022-11-30T12:06:58.579Z,6.60
2022-11-30T12:09:31.117Z,6.60
2022-11-30T12:11:57.810Z,6.60
2022-11-30T12:14:25.938Z,6.60
2022-11-30T12:16:58.511Z,6.60
2022-11-30T12:19:55.568Z,6.70
2022-11-30T12:23:00.225Z,6.70
2022-11-30T12:25:30.451Z,6.60
2022-11-30T12:28:25.054Z,6.60
2022-11-30T12:31:12.543Z,6.60
2022-11-30T12:33:57.552Z,6.60
2022-11-30T12:36:49.789Z,6.60
2022-11-30T12:39:24.826Z,6.60
2022-11-30T12:42:17.703Z,6.50
2022-11-30T12:45:15.979Z,6.50
2022-11-30T12:48:10.668Z,6.40
2022-11-30T12:50:50.895Z,6.40
2022-11-30T12:53:56.815Z,6.40
2022-11-30T12:56:42.883Z,6.40
2022-11-30T12:59:19.039Z,6.40
2022-11-30T13:02:04.916Z,6.30
2022-11-30T13:05:06.678Z,6.30
2022-11-30T13:07:51.770Z,6.30
2022-11-30T13:10:32.759Z,6.20
2022-11-30T13:13:01.022Z,6.20
2022-11-30T13:15:30.647Z,6.10
2022-11-30T13:17:57.680Z,6.10
2022-11-30T13:20:48.521Z,6.10
2022-11-30T13:23:36.214Z,6.10
2022-11-30T13:26:29.828Z,6.00
2022-11-30T13:29:24.243Z,5.90
2022-11-30T13:32:22.272Z,5.90
2022-11-30T13:35:36.121Z,5.80
2022-11-30T13:38:34.537Z,5.60
2022-11-30T13:41:09.203Z,5.50
2022-11-30T13:43:47.705Z,5.60
2022-11-30T13:46:21.147Z,5.50
2022-11-30T13:48:48.488Z,5.40
2022-11-30T13:51:36.290Z,5.40
2022-11-30T13:54:28.436Z,5.40
2022-11-30T13:56:55.316Z,5.30
2022-11-30T13:59:21.955Z,5.20
2022-11-30T14:01:49.435Z,5.10
2022-11-30T14:04:19.172Z,5.00
2022-11-30T14:06:51.289Z,4.90
2022-11-30T14:09:40.462Z,4.80
2022-11-30T14:12:31.879Z,4.70
2022-11-30T14:14:59.662Z,4.60
2022-11-30T14:17:28.758Z,4.50
2022-11-30T14:20:16.909Z,4.50
2022-11-30T14:22:44.061Z,4.50
2022-11-30T14:25:20.155Z,4.50
2022-11-30T14:27:50.839Z,4.40
2022-11-30T14:30:20.573Z,4.30
2022-11-30T14:32:55.507Z,4.30
2022-11-30T14:35:22.855Z,4.30
2022-11-30T14:37:58.349Z,4.30
2022-11-30T14:40:27.758Z,4.20
2022-11-30T14:43:00.087Z,4.10
2022-11-30T14:45:32.823Z,4.10
2022-11-30T14:48:07.100Z,4.10
2022-11-30T14:50:35.635Z,4.10
2022-11-30T14:53:14.559Z,4.00
2022-11-30T14:55:57.331Z,4.00
2022-11-30T14:58:40.812Z,3.90
2022-11-30T15:01:18.221Z,3.80
2022-11-30T15:03:45.517Z,3.70
2022-11-30T15:06:18.215Z,3.60
2022-11-30T15:08:53.110Z,3.50
2022-11-30T15:11:21.041Z,3.40
2022-11-30T15:13:53.280Z,3.40
2022-11-30T15:16:29.620Z,3.40
2022-11-30T15:18:58.720Z,3.30
2022-11-30T15:21:32.191Z,3.30
2022-11-30T15:24:01.344Z,3.20
2022-11-30T15:26:28.088Z,3.20
2022-11-30T15:29:04.113Z,3.20
2022-11-30T15:31:38.076Z,3.20
2022-11-30T15:34:06.488Z,3.20
2022-11-30T15:36:38.142Z,3.20
2022-11-30T15:39:08.011Z,3.20
2022-11-30T15:41:35.804Z,3.20
2022-11-30T15:44:02.521Z,3.20
2022-11-30T15:46:44.462Z,3.10
2022-11-30T15:49:12.887Z,3.10
2022-11-30T15:51:42.059Z,3.10
2022-11-30T15:54:08.722Z,3.10
2022-11-30T15:56:35.562Z,3.10
2022-11-30T15:59:20.455Z,3.10
2022-11-30T16:01:53.254Z,3.10
2022-11-30T16:04:20.002Z,3.10
2022-11-30T16:06:48.124Z,3.20
2022-11-30T16:09:28.099Z,3.20
2022-11-30T16:11:57.526Z,3.20
2022-11-30T16:14:24.375Z,3.20
2022-11-30T16:16:51.784Z,3.20
2022-11-30T16:19:18.538Z,3.20
2022-11-30T16:21:45.363Z,3.20
2022-11-30T16:24:14.565Z,3.30
2022-11-30T16:26:52.496Z,3.30
2022-11-30T16:29:19.916Z,3.30
2022-11-30T16:31:46.730Z,3.30
2022-11-30T16:34:13.418Z,3.30
2022-11-30T16:36:40.102Z,3.30
2022-11-30T16:39:06.952Z,3.30
2022-11-30T16:41:35.099Z,3.20
2022-11-30T16:44:01.809Z,3.30
2022-11-30T16:46:29.439Z,3.30
2022-11-30T16:48:56.413Z,3.30
2022-11-30T16:51:27.167Z,3.30
2022-11-30T16:53:54.598Z,3.30
2022-11-30T16:56:21.839Z,3.30
2022-11-30T16:58:48.718Z,3.30
2022-11-30T17:01:21.090Z,3.30
2022-11-30T17:03:50.661Z,3.30
2022-11-30T17:06:23.444Z,3.30
2022-11-30T17:08:50.539Z,3.30
2022-11-30T17:11:24.813Z,3.30
2022-11-30T17:13:51.479Z,3.30
2022-11-30T17:16:18.184Z,3.30
2022-11-30T17:18:44.877Z,3.30
2022-11-30T17:21:17.687Z,3.30
2022-11-30T17:23:45.197Z,3.20
2022-11-30T17:26:12.845Z,3.20
2022-11-30T17:28:39.989Z,3.20
2022-11-30T17:31:06.944Z,3.20
2022-11-30T17:33:34.596Z,3.20
2022-11-30T17:36:06.798Z,3.20
2022-11-30T17:38:35.432Z,3.20
2022-11-30T17:41:10.394Z,3.20
2022-11-30T17:43:38.926Z,3.20
2022-11-30T17:46:16.418Z,3.20
2022-11-30T17:48:43.996Z,3.20
2022-11-30T17:51:11.666Z,3.30
2022-11-30T17:53:39.837Z,3.30
2022-11-30T17:56:09.218Z,3.20
2022-11-30T17:58:43.715Z,3.20
2022-11-30T18:01:21.599Z,3.30
2022-11-30T18:03:49.424Z,3.20
2022-11-30T18:06:16.765Z,3.20
2022-11-30T18:08:44.099Z,3.20
2022-11-30T18:11:13.173Z,3.20
2022-11-30T18:13:40.261Z,3.10
2022-11-30T18:16:15.007Z,3.20
2022-11-30T18:18:47.452Z,3.20
2022-11-30T18:21:17.289Z,3.20
2022-11-30T18:23:44.228Z,3.20
2022-11-30T18:26:13.380Z,3.20
2022-11-30T18:28:40.590Z,3.10
2022-11-30T18:31:07.552Z,3.10
2022-11-30T18:33:35.151Z,3.10
2022-11-30T18:36:03.793Z,3.10
2022-11-30T18:38:34.296Z,3.20
2022-11-30T18:41:04.453Z,3.20
2022-11-30T18:43:31.120Z,3.10
2022-11-30T18:46:09.052Z,3.10
2022-11-30T18:48:37.370Z,3.10
2022-11-30T18:51:17.714Z,3.00
2022-11-30T18:53:45.076Z,3.00
2022-11-30T18:56:19.402Z,3.00
2022-11-30T18:58:47.534Z,3.00
2022-11-30T19:01:17.100Z,3.00
2022-11-30T19:03:48.830Z,3.00
2022-11-30T19:06:15.519Z,2.90
2022-11-30T19:08:42.244Z,2.90
2022-11-30T19:11:10.122Z,2.90
2022-11-30T19:13:36.863Z,2.90
2022-11-30T19:16:05.689Z,2.80
2022-11-30T19:18:32.902Z,2.80
2022-11-30T19:20:59.826Z,2.80
2022-11-30T19:23:29.489Z,2.90
2022-11-30T19:26:00.425Z,2.80
2022-11-30T19:28:29.254Z,2.80
2022-11-30T19:30:56.724Z,2.80
2022-11-30T19:33:23.509Z,2.90
2022-11-30T19:35:50.208Z,2.90
2022-11-30T19:38:16.983Z,2.90
2022-11-30T19:40:43.652Z,2.90
2022-11-30T19:43:10.440Z,2.90
2022-11-30T19:45:41.500Z,2.90
2022-11-30T19:48:08.607Z,2.90
2022-11-30T19:50:36.799Z,2.90
2022-11-30T19:53:03.736Z,2.90
2022-11-30T19:55:30.520Z,2.90
2022-11-30T19:57:57.392Z,2.90
2022-11-30T20:00:24.263Z,2.90
2022-11-30T20:02:51.221Z,2.90
2022-11-30T20:05:18.263Z,2.90
2022-11-30T20:07:45.095Z,2.80
2022-11-30T20:10:12.375Z,2.80
2022-11-30T20:12:40.251Z,2.80
2022-11-30T20:15:08.031Z,2.80
2022-11-30T20:17:35.039Z,2.70
2022-11-30T20:20:01.923Z,2.70
2022-11-30T20:22:28.672Z,2.80
2022-11-30T20:24:55.528Z,2.80
2022-11-30T20:27:22.329Z,2.80
2022-11-30T20:29:50.299Z,2.70
2022-11-30T20:32:17.342Z,2.70
2022-11-30T20:34:44.153Z,2.70
2022-11-30T20:37:11.661Z,2.70
2022-11-30T20:39:42.600Z,2.80
2022-11-30T20:42:12.171Z,2.80
2022-11-30T20:44:38.810Z,2.80
2022-11-30T20:47:05.623Z,2.80
2022-11-30T20:49:32.248Z,2.80
2022-11-30T20:51:58.978Z,2.90
2022-11-30T20:54:25.649Z,2.90
2022-11-30T20:56:52.323Z,2.90
2022-11-30T20:59:19.388Z,2.80
2022-11-30T21:01:47.025Z,2.70
2022-11-30T21:04:13.781Z,2.70
2022-11-30T21:06:40.432Z,2.60
2022-11-30T21:09:07.118Z,2.60
2022-11-30T21:11:33.804Z,2.70
2022-11-30T21:14:00.475Z,2.70
2022-11-30T21:16:29.087Z,2.70
2022-11-30T21:18:58.116Z,2.70
2022-11-30T21:21:26.306Z,2.70
2022-11-30T21:23:53.299Z,2.80
2022-11-30T21:26:29.956Z,2.70
2022-11-30T21:29:01.028Z,2.70
2022-11-30T21:31:27.824Z,2.70
2022-11-30T21:33:54.803Z,2.70
2022-11-30T21:36:22.593Z,2.70
2022-11-30T21:39:04.415Z,2.70
2022-11-30T21:41:33.691Z,2.70
2022-11-30T21:44:00.407Z,2.70
2022-11-30T21:46:27.132Z,2.60
2022-11-30T21:48:53.977Z,2.60
2022-11-30T21:51:23.112Z,2.60
2022-11-30T21:53:52.388Z,2.60
2022-11-30T21:56:21.495Z,2.60
2022-11-30T21:58:50.006Z,2.60
2022-11-30T22:01:30.499Z,2.70
2022-11-30T22:03:58.568Z,2.60
2022-11-30T22:06:27.314Z,2.60
2022-11-30T22:08:56.874Z,2.60
2022-11-30T22:11:23.644Z,2.60
2022-11-30T22:13:52.505Z,2.60
2022-11-30T22:16:20.318Z,2.50
2022-11-30T22:18:47.544Z,2.60
2022-11-30T22:21:16.765Z,2.50
2022-11-30T22:23:45.743Z,2.50
2022-11-30T22:26:15.325Z,2.50
2022-11-30T22:28:50.622Z,2.50
2022-11-30T22:31:18.988Z,2.60
2022-11-30T22:33:46.318Z,2.50
2022-11-30T22:36:19.117Z,2.50
2022-11-30T22:38:47.171Z,2.50
2022-11-30T22:41:16.599Z,2.50
2022-11-30T22:43:45.970Z,2.50
2022-11-30T22:46:16.816Z,2.40
2022-11-30T22:48:44.468Z,2.30
2022-11-30T22:51:13.260Z,2.30
2022-11-30T22:53:40.916Z,2.20
2022-11-30T22:56:13.004Z,2.20
2022-11-30T22:58:40.923Z,2.20
2022-11-30T23:01:10.347Z,2.30
2022-11-30T23:03:37.915Z,2.30
2022-11-30T23:06:06.025Z,2.30
2022-11-30T23:08:33.178Z,2.30
2022-11-30T23:11:05.061Z,2.30
2022-11-30T23:13:32.320Z,2.30
2022-11-30T23:15:59.667Z,2.30
2022-11-30T23:18:32.763Z,2.30
2022-11-30T23:21:09.035Z,2.40
2022-11-30T23:23:35.689Z,2.40
2022-11-30T23:26:12.792Z,2.40
2022-11-30T23:28:41.272Z,2.30
2022-11-30T23:31:33.717Z,2.30
2022-11-30T23:34:01.047Z,2.30
2022-11-30T23:36:28.089Z,2.40
2022-11-30T23:38:57.737Z,2.40
2022-11-30T23:41:25.545Z,2.50
2022-11-30T23:43:52.497Z,2.50
2022-11-30T23:46:19.436Z,2.50
2022-11-30T23:48:46.176Z,2.40
2022-11-30T23:51:12.838Z,2.40
2022-11-30T23:53:39.614Z,2.40
2022-11-30T23:56:08.772Z,2.40
2022-11-30T23:58:35.487Z,2.40
